Time;durP1;ratioP1;P1;durP2;ratioP2;P2;SDS_P1;SDS_P2;PMS_P1;PMS_P2;Temp;Humidity;BMP_temperature;BMP_pressure;BME280_temperature;BME280_humidity;BME280_pressure;Samples;Min_cycle;Max_cycle;Signal;HPM_P1;HPM_P2
2024/01/25 00:01:08;;;;;;;;;4.33;1.00;;;;;14.25;73.01;102753.47;5072006;28;45922;-73
2024/01/25 00:03:37;;;;;;;;;4.67;1.00;;;;;14.25;73.23;102769.28;5073768;28;45471;-73
2024/01/25 00:06:05;;;;;;;;;5.00;2.00;;;;;14.19;72.98;102755.13;5076819;28;45398;-74
2024/01/25 00:08:31;;;;;;;;;4.67;3.00;;;;;14.15;74.24;102755.03;5079252;27;45475;-75
2024/01/25 00:10:56;;;;;;;;;2.00;2.00;;;;;14.10;73.28;102739.13;5077797;28;45849;-77
2024/01/25 00:13:22;;;;;;;;;4.67;2.00;;;;;14.16;73.41;102738.34;5076530;28;45442;-75
2024/01/25 00:15:48;;;;;;;;;2.67;2.33;;;;;14.26;73.25;102748.22;5075363;27;45507;-74
2024/01/25 00:18:14;;;;;;;;;2.00;1.67;;;;;14.28;73.05;102749.13;5076881;28;45461;-73
2024/01/25 00:20:42;;;;;;;;;4.33;1.33;;;;;14.30;73.54;102746.50;5077813;27;45969;-77
2024/01/25 00:23:33;;;;;;;;;3.00;3.00;;;;;14.23;73.66;102737.59;5076781;27;45370;-78
2024/01/25 00:26:08;;;;;;;;;4.67;3.00;;;;;13.47;73.75;102606.19;5076536;28;45412;-75
2024/01/25 00:28:35;;;;;;;;;3.00;2.00;;;;;14.18;74.70;102726.97;5076260;27;45492;-77
2024/01/25 00:31:33;;;;;;;;;4.33;2.33;;;;;14.17;74.87;102734.88;5075704;28;46577;-69
2024/01/25 00:34:07;;;;;;;;;2.33;2.00;;;;;13.79;74.57;102664.75;5061251;28;45525;-69
2024/01/25 00:36:56;;;;;;;;;3.67;2.33;;;;;13.87;74.69;102685.09;5076753;27;45496;-68
2024/01/25 00:39:30;;;;;;;;;3.67;3.67;;;;;14.16;74.59;102735.72;5092194;27;45683;-69
2024/01/25 00:42:05;;;;;;;;;3.67;3.00;;;;;14.19;74.52;102731.41;5070676;28;45449;-70
2024/01/25 00:44:31;;;;;;;;;3.00;2.00;;;;;14.06;74.45;102699.50;5103650;27;45413;-68
2024/01/25 00:46:56;;;;;;;;;3.67;3.33;;;;;14.09;75.84;102720.63;5068418;28;45369;-69
2024/01/25 00:49:32;;;;;;;;;4.33;4.00;;;;;14.00;76.03;102719.63;5076275;27;45490;-68
2024/01/25 00:52:02;;;;;;;;;6.67;5.00;;;;;14.04;74.95;102715.28;5091723;27;46109;-73
2024/01/25 00:54:29;;;;;;;;;5.00;4.00;;;;;14.00;75.13;102706.44;5076779;27;45539;-74
2024/01/25 00:56:54;;;;;;;;;9.33;4.00;;;;;14.09;74.50;102712.75;5076554;27;45501;-72
2024/01/25 00:59:30;;;;;;;;;9.67;6.33;;;;;14.11;74.55;102719.81;5076848;27;45435;-75
2024/01/25 01:01:59;;;;;;;;;8.67;7.33;;;;;14.05;74.32;102703.00;5076458;28;45474;-73
2024/01/25 01:04:25;;;;;;;;;6.67;6.00;;;;;14.05;74.73;102717.06;5094436;27;45505;-69
2024/01/25 01:06:51;;;;;;;;;6.67;3.00;;;;;14.06;74.27;102707.41;5081709;27;45646;-70
2024/01/25 01:09:17;;;;;;;;;8.00;8.00;;;;;14.03;74.04;102710.00;5064704;28;45453;-70
2024/01/25 01:11:43;;;;;;;;;4.67;3.67;;;;;13.98;73.84;102702.88;5076422;27;46256;-67
2024/01/25 01:14:08;;;;;;;;;12.67;4.33;;;;;13.96;73.93;102691.44;5075951;28;45398;-70
2024/01/25 01:16:35;;;;;;;;;6.67;4.00;;;;;14.09;74.33;102720.63;5077402;27;45450;-73
2024/01/25 01:19:05;;;;;;;;;5.33;4.00;;;;;13.92;74.23;102705.38;5076904;27;45623;-74
2024/01/25 01:21:32;;;;;;;;;8.33;5.00;;;;;13.86;74.19;102701.78;5076127;27;45675;-74
2024/01/25 01:23:59;;;;;;;;;6.33;3.67;;;;;13.90;74.20;102711.50;5074125;27;45509;-75
2024/01/25 01:26:24;;;;;;;;;6.00;4.00;;;;;13.88;74.13;102700.94;5076291;27;45907;-74
2024/01/25 01:28:50;;;;;;;;;4.00;4.00;;;;;13.84;73.90;102692.94;5086155;27;45369;-75
2024/01/25 01:31:15;;;;;;;;;13.67;9.00;;;;;13.84;74.37;102696.47;5077221;28;46509;-73
2024/01/25 01:33:42;;;;;;;;;13.00;7.33;;;;;13.57;75.74;102697.69;5062232;27;45759;-75
2024/01/25 01:36:07;;;;;;;;;7.67;5.00;;;;;13.45;75.68;102683.34;5070660;27;45840;-73
2024/01/25 01:38:33;;;;;;;;;7.67;5.33;;;;;13.50;75.88;102700.13;5071343;28;45546;-74
2024/01/25 01:40:58;;;;;;;;;13.67;6.33;;;;;13.49;75.76;102703.63;5074872;28;45357;-73
2024/01/25 01:43:24;;;;;;;;;6.67;3.00;;;;;13.54;75.01;102699.34;5072378;27;45438;-74
2024/01/25 01:45:50;;;;;;;;;6.67;6.67;;;;;13.49;74.72;102680.81;5069056;28;45400;-74
2024/01/25 01:48:17;;;;;;;;;7.33;4.00;;;;;13.68;73.77;102707.53;5070683;27;45630;-76
2024/01/25 01:50:47;;;;;;;;;5.33;4.00;;;;;13.71;74.07;102704.97;5077485;27;45452;-73
2024/01/25 01:53:12;;;;;;;;;4.33;4.33;;;;;13.76;73.81;102706.84;5071872;27;45334;-66
2024/01/25 01:55:41;;;;;;;;;2.33;1.00;;;;;13.71;73.42;102687.41;5068619;28;45514;-67
2024/01/25 01:58:07;;;;;;;;;8.33;4.00;;;;;13.76;73.29;102696.31;5062066;27;45431;-69
2024/01/25 02:00:33;;;;;;;;;4.67;2.67;;;;;13.78;73.85;102696.31;5076481;27;46370;-72
2024/01/25 02:03:00;;;;;;;;;4.67;4.67;;;;;13.80;73.71;102705.16;5076016;27;45447;-71
2024/01/25 02:05:25;;;;;;;;;5.67;3.33;;;;;13.82;73.63;102705.19;5072005;27;45443;-74
2024/01/25 02:07:52;;;;;;;;;5.00;2.33;;;;;13.82;73.74;102703.44;5063799;27;45381;-72
2024/01/25 02:10:18;;;;;;;;;5.33;5.33;;;;;13.69;73.54;102672.44;5089977;27;46958;-77
2024/01/25 02:12:43;;;;;;;;;6.00;5.67;;;;;13.81;73.54;102695.50;5075145;27;45564;-74
2024/01/25 02:15:09;;;;;;;;;5.67;2.33;;;;;13.83;73.34;102707.84;5063657;28;45406;-74
2024/01/25 02:17:35;;;;;;;;;7.33;4.00;;;;;13.85;74.23;102703.50;5076908;27;45550;-73
2024/01/25 02:20:03;;;;;;;;;5.33;5.00;;;;;13.86;73.55;102693.88;5075724;27;45409;-74
2024/01/25 02:22:28;;;;;;;;;8.00;5.00;;;;;13.88;73.42;102695.69;5076652;27;45267;-74
2024/01/25 02:24:54;;;;;;;;;7.33;7.33;;;;;13.87;73.51;102701.78;5078314;27;45318;-72
2024/01/25 02:27:19;;;;;;;;;4.33;3.00;;;;;13.87;73.19;102687.72;5078610;28;45620;-68
2024/01/25 02:29:45;;;;;;;;;5.67;4.33;;;;;13.80;74.12;102689.34;5076863;27;46026;-75
2024/01/25 02:32:11;;;;;;;;;6.00;5.00;;;;;13.81;73.88;102698.13;5076407;27;45638;-75
2024/01/25 02:34:36;;;;;;;;;8.33;5.00;;;;;13.66;74.55;102685.56;5076781;27;45337;-66
2024/01/25 02:37:02;;;;;;;;;7.67;6.67;;;;;13.48;75.22;102700.13;5078442;27;45454;-74
2024/01/25 02:39:28;;;;;;;;;7.67;6.67;;;;;13.40;75.58;102700.81;5063986;28;46161;-73
2024/01/25 02:41:53;;;;;;;;;6.00;5.00;;;;;13.30;75.83;102700.59;5062210;27;45423;-75
2024/01/25 02:44:19;;;;;;;;;6.67;4.00;;;;;13.34;75.73;102707.72;5075166;27;45299;-73
2024/01/25 02:46:46;;;;;;;;;6.00;3.00;;;;;13.28;75.99;102689.16;5075286;27;45385;-72
2024/01/25 02:49:12;;;;;;;;;4.33;3.00;;;;;13.34;76.38;102698.94;5070146;28;45395;-74
2024/01/25 02:51:37;;;;;;;;;8.67;4.67;;;;;13.29;75.24;102684.78;5069072;28;45244;-72
2024/01/25 02:54:03;;;;;;;;;4.33;4.33;;;;;13.41;75.17;102700.84;5076573;28;45445;-75
2024/01/25 02:56:34;;;;;;;;;4.67;4.33;;;;;13.46;74.93;102690.41;5078409;27;45466;-74
2024/01/25 02:59:01;;;;;;;;;7.33;5.00;;;;;13.39;75.67;102697.28;5078842;27;45969;-75
2024/01/25 03:01:26;;;;;;;;;1.67;1.33;;;;;13.35;75.25;102703.34;5094905;27;45442;-73
2024/01/25 03:03:52;;;;;;;;;5.33;3.67;;;;;13.35;75.18;102687.53;5094680;27;45552;-72
2024/01/25 03:06:17;;;;;;;;;6.00;4.00;;;;;13.37;75.43;102680.56;5069867;27;45335;-75
2024/01/25 03:08:43;;;;;;;;;4.00;4.00;;;;;13.48;74.64;102692.22;5094943;27;45467;-76
2024/01/25 03:11:08;;;;;;;;;3.67;3.00;;;;;13.54;74.88;102694.97;5088141;27;45208;-72
2024/01/25 03:13:34;;;;;;;;;5.00;4.33;;;;;13.57;74.53;102691.50;5068585;28;45421;-74
2024/01/25 03:15:59;;;;;;;;;6.00;4.00;;;;;13.57;75.20;102683.59;5077830;28;45573;-68
2024/01/25 03:18:25;;;;;;;;;6.33;4.67;;;;;13.39;75.53;102688.50;5078537;28;46332;-71
2024/01/25 03:20:51;;;;;;;;;7.33;6.33;;;;;13.38;75.17;102670.94;5095253;27;45372;-71
2024/01/25 03:23:17;;;;;;;;;4.00;4.00;;;;;13.32;76.43;102679.59;5080040;27;45458;-74
2024/01/25 03:25:42;;;;;;;;;6.00;5.00;;;;;13.35;76.32;102700.69;5079645;27;45599;-71
2024/01/25 03:28:09;;;;;;;;;10.33;6.00;;;;;13.23;76.50;102687.25;5078389;28;45550;-74
2024/01/25 03:30:35;;;;;;;;;7.00;5.00;;;;;13.05;76.92;102680.72;5077775;28;45390;-77
2024/01/25 03:33:00;;;;;;;;;8.00;7.00;;;;;12.89;77.50;102670.69;5079394;28;45396;-76
2024/01/25 03:35:26;;;;;;;;;8.00;5.00;;;;;12.86;78.22;102695.19;5080169;27;45385;-73
2024/01/25 03:37:51;;;;;;;;;8.00;4.33;;;;;12.82;77.97;102681.94;5076308;27;45548;-76
2024/01/25 03:40:17;;;;;;;;;9.33;5.00;;;;;12.82;78.38;102682.81;5059746;28;45474;-75
2024/01/25 03:42:42;;;;;;;;;9.00;6.00;;;;;12.80;78.67;102691.53;5061336;28;45378;-76
2024/01/25 03:45:08;;;;;;;;;9.00;4.67;;;;;12.78;79.13;102682.69;5071273;28;45359;-75
2024/01/25 03:47:34;;;;;;;;;5.00;5.00;;;;;12.74;79.25;102676.47;5073616;28;45554;-75
2024/01/25 03:49:59;;;;;;;;;8.00;5.33;;;;;12.72;79.26;102679.06;5071076;28;45305;-74
2024/01/25 03:52:25;;;;;;;;;9.00;4.33;;;;;12.79;79.65;102684.47;5093991;27;45267;-72
2024/01/25 03:54:51;;;;;;;;;8.67;7.00;;;;;12.68;79.82;102671.97;5079006;27;45295;-77
2024/01/25 03:57:16;;;;;;;;;12.00;9.67;;;;;12.64;79.63;102674.47;5078710;27;46065;-75
2024/01/25 03:59:42;;;;;;;;;9.67;7.67;;;;;12.66;79.85;102684.16;5096220;27;45473;-73
2024/01/25 04:02:09;;;;;;;;;14.67;9.67;;;;;12.61;80.59;102685.81;5079310;27;45433;-75
2024/01/25 04:04:34;;;;;;;;;13.33;8.00;;;;;12.48;80.73;102673.19;5076727;27;45460;-75
2024/01/25 04:07:00;;;;;;;;;12.67;8.00;;;;;12.38;81.01;102660.69;5074080;28;46213;-76
2024/01/25 04:09:25;;;;;;;;;10.33;8.00;;;;;12.54;81.11;102689.13;5067775;28;45439;-71
2024/01/25 04:11:51;;;;;;;;;13.00;8.67;;;;;12.60;80.99;102693.63;5065630;27;45358;-73
2024/01/25 04:14:17;;;;;;;;;12.67;8.33;;;;;12.38;81.26;102668.56;5078805;27;45605;-71
2024/01/25 04:16:43;;;;;;;;;10.00;7.67;;;;;12.34;81.40;102666.69;5078361;27;46726;-67
2024/01/25 04:19:12;;;;;;;;;7.00;7.00;;;;;12.40;82.04;102682.63;5076896;28;45372;-72
2024/01/25 04:21:44;;;;;;;;;11.00;8.00;;;;;12.30;82.91;102677.16;5078359;27;45436;-71
2024/01/25 04:24:32;;;;;;;;;;;;;;;;;;;;;
2024/01/25 04:26:58;;;;;;;;;17.00;9.00;;;;;12.24;83.02;102679.63;5078415;28;75311;-70
2024/01/25 04:29:24;;;;;;;;;16.67;8.67;;;;;12.33;83.45;102683.34;5071945;27;45488;-69
2024/01/25 04:31:55;;;;;;;;;11.67;10.33;;;;;12.04;83.62;102636.19;5062919;28;45673;-67
2024/01/25 04:34:21;;;;;;;;;10.33;6.67;;;;;12.21;83.97;102669.03;5079685;28;46002;-74
2024/01/25 04:36:46;;;;;;;;;17.25;9.50;;;;;12.25;84.43;102691.91;5078757;27;45484;-73
2024/01/25 04:39:12;;;;;;;;;13.00;8.67;;;;;12.21;84.25;102690.03;5078405;28;45471;-73
2024/01/25 04:41:37;;;;;;;;;13.75;8.75;;;;;12.11;84.22;102658.25;5094547;27;45317;-74
2024/01/25 04:44:04;;;;;;;;;15.50;11.75;;;;;12.10;85.24;102678.34;5077407;27;46128;-75
2024/01/25 04:46:35;;;;;;;;;20.00;11.25;;;;;12.12;85.56;102681.91;5093802;27;46409;-75
2024/01/25 04:49:01;;;;;;;;;14.50;12.25;;;;;12.07;85.46;102676.53;5061438;28;45442;-73
2024/01/25 04:51:26;;;;;;;;;11.50;10.25;;;;;12.06;85.87;102681.75;5070148;28;45471;-74
2024/01/25 04:53:52;;;;;;;;;11.00;10.00;;;;;11.97;85.75;102676.25;5059521;28;46178;-73
2024/01/25 04:56:17;;;;;;;;;15.25;10.25;;;;;11.96;86.31;102680.63;5066177;28;46396;-76
2024/01/25 04:58:43;;;;;;;;;17.50;7.50;;;;;11.82;87.01;102659.19;5094969;27;45397;-75
2024/01/25 05:01:08;;;;;;;;;14.50;10.25;;;;;11.87;86.90;102668.13;5065696;28;45386;-73
2024/01/25 05:03:34;;;;;;;;;12.75;10.25;;;;;11.81;87.05;102667.91;5066476;27;45696;-75
2024/01/25 05:06:00;;;;;;;;;14.25;9.25;;;;;11.78;87.49;102657.31;5077258;27;45384;-72
2024/01/25 05:08:26;;;;;;;;;17.00;11.75;;;;;11.72;88.05;102651.94;5073498;27;45369;-73
2024/01/25 05:10:52;;;;;;;;;19.25;13.00;;;;;11.74;88.37;102658.09;5077746;27;45475;-76
2024/01/25 05:13:18;;;;;;;;;14.25;11.00;;;;;11.74;87.92;102657.19;5077531;27;45575;-75
2024/01/25 05:15:44;;;;;;;;;11.50;8.00;;;;;11.65;88.29;102642.06;5077082;27;45647;-74
2024/01/25 05:18:10;;;;;;;;;13.00;12.25;;;;;11.67;88.89;102656.13;5076391;27;45387;-72
2024/01/25 05:20:37;;;;;;;;;24.00;14.50;;;;;11.75;88.74;102648.50;5077095;27;45328;-74
2024/01/25 05:23:03;;;;;;;;;18.25;10.25;;;;;11.74;88.91;102642.34;5077981;27;45596;-73
2024/01/25 05:25:30;;;;;;;;;17.00;12.50;;;;;11.72;89.17;102637.88;5077272;28;45484;-72
2024/01/25 05:27:56;;;;;;;;;14.75;11.00;;;;;11.73;88.19;102626.56;5075643;27;45467;-73
2024/01/25 05:30:22;;;;;;;;;19.00;14.00;;;;;11.66;88.31;102607.13;5077396;28;45552;-74
2024/01/25 05:32:52;;;;;;;;;15.50;13.25;;;;;11.75;89.19;102640.63;5078537;28;45441;-71
2024/01/25 05:35:18;;;;;;;;;14.75;12.50;;;;;11.67;89.50;102632.50;5072394;28;47161;-74
2024/01/25 05:37:43;;;;;;;;;12.25;12.25;;;;;11.67;89.50;102632.50;5085587;27;45549;-73
2024/01/25 05:40:10;;;;;;;;;13.25;12.25;;;;;11.61;89.42;102620.13;5074830;27;45481;-76
2024/01/25 05:42:36;;;;;;;;;15.00;12.00;;;;;11.68;90.03;102634.31;5077539;27;45526;-74
2024/01/25 05:45:03;;;;;;;;;17.25;13.50;;;;;11.45;89.03;102595.16;5058379;27;46446;-73
2024/01/25 05:47:30;;;;;;;;;16.50;12.00;;;;;11.56;90.00;102620.84;5072326;27;45579;-75
2024/01/25 05:49:57;;;;;;;;;15.75;13.75;;;;;11.52;90.92;102616.34;5066223;28;45507;-74
2024/01/25 05:52:23;;;;;;;;;17.25;13.00;;;;;11.50;90.29;102618.03;5077875;27;45519;-72
2024/01/25 05:54:50;;;;;;;;;19.00;14.75;;;;;11.62;90.12;102632.38;5078302;27;46395;-74
2024/01/25 05:57:20;;;;;;;;;14.75;12.00;;;;;11.66;89.84;102638.63;5071129;28;45295;-74
2024/01/25 05:59:45;;;;;;;;;15.00;12.75;;;;;11.69;89.38;102636.06;5069113;28;45384;-73
2024/01/25 06:02:11;;;;;;;;;19.75;14.25;;;;;11.70;89.08;102631.69;5075172;28;45542;-73
2024/01/25 06:04:37;;;;;;;;;20.50;14.00;;;;;11.74;88.83;102644.06;5076197;27;46216;-73
2024/01/25 06:07:03;;;;;;;;;20.00;17.50;;;;;11.69;88.98;102636.06;5075987;27;45464;-72
2024/01/25 06:09:28;;;;;;;;;20.25;16.00;;;;;11.71;88.39;102637.00;5076908;28;45372;-70
2024/01/25 06:11:54;;;;;;;;;18.75;12.50;;;;;11.84;88.59;102652.25;5068457;28;45519;-73
2024/01/25 06:14:20;;;;;;;;;22.00;15.75;;;;;11.77;88.78;102642.44;5070553;27;45413;-73
2024/01/25 06:16:48;;;;;;;;;26.25;18.50;;;;;11.75;88.50;102638.88;5068297;27;45583;-72
2024/01/25 06:19:14;;;;;;;;;19.50;14.75;;;;;11.86;88.89;102655.81;5067559;28;45414;-75
2024/01/25 06:21:39;;;;;;;;;19.50;15.00;;;;;11.84;88.68;102651.34;5062624;27;46525;-73
2024/01/25 06:24:05;;;;;;;;;21.50;16.25;;;;;11.85;89.08;102658.41;5071235;28;45574;-69
2024/01/25 06:26:34;;;;;;;;;25.50;16.75;;;;;11.79;88.70;102645.09;5073058;28;45552;-75
2024/01/25 06:29:00;;;;;;;;;20.25;15.50;;;;;11.80;88.88;102653.00;5079159;27;45322;-73
2024/01/25 06:31:25;;;;;;;;;18.25;15.25;;;;;11.90;88.11;102655.94;5079312;28;45469;-67
2024/01/25 06:33:52;;;;;;;;;21.00;15.75;;;;;11.90;88.14;102650.69;5079338;28;46390;-74
2024/01/25 06:36:20;;;;;;;;;19.25;16.75;;;;;11.90;88.37;102648.06;5078880;27;45460;-72
2024/01/25 06:38:46;;;;;;;;;23.75;19.50;;;;;11.81;89.03;102648.66;5078853;27;45708;-76
2024/01/25 06:41:11;;;;;;;;;16.00;14.00;;;;;11.76;89.30;102643.28;5074496;27;45439;-71
2024/01/25 06:43:37;;;;;;;;;18.00;14.50;;;;;11.81;89.36;102646.03;5071741;28;46158;-70
2024/01/25 06:46:03;;;;;;;;;25.25;19.25;;;;;11.85;88.92;102632.13;5095631;27;45423;-68
2024/01/25 06:48:28;;;;;;;;;20.50;15.00;;;;;11.89;88.21;102636.66;5066825;28;45324;-72
2024/01/25 06:50:54;;;;;;;;;23.25;17.75;;;;;11.92;88.66;102642.00;5079721;28;45297;-72
2024/01/25 06:53:21;;;;;;;;;23.00;19.25;;;;;11.84;87.93;102626.00;5077679;28;45450;-67
2024/01/25 06:55:50;;;;;;;;;21.25;15.50;;;;;11.97;88.44;102640.38;5075755;27;45597;-72
2024/01/25 06:58:16;;;;;;;;;21.00;15.75;;;;;11.99;88.01;102629.91;5068203;28;45417;-67
2024/01/25 07:00:42;;;;;;;;;21.50;14.75;;;;;12.03;87.40;102630.03;5078055;27;45554;-72
2024/01/25 07:03:08;;;;;;;;;20.75;14.25;;;;;12.05;87.22;102617.84;5066139;28;46362;-72
2024/01/25 07:05:35;;;;;;;;;20.75;16.25;;;;;12.06;87.22;102608.22;5093781;27;45457;-68
2024/01/25 07:08:02;;;;;;;;;24.50;20.00;;;;;12.03;86.86;102601.16;5077483;28;45595;-67
2024/01/25 07:10:27;;;;;;;;;20.75;19.00;;;;;12.07;87.40;102623.13;5077781;28;45555;-69
2024/01/25 07:12:53;;;;;;;;;27.25;18.50;;;;;12.06;87.83;102621.34;5079243;27;45491;-67
2024/01/25 07:15:19;;;;;;;;;28.75;20.50;;;;;12.03;87.85;102621.25;5079912;27;45655;-68
2024/01/25 07:17:45;;;;;;;;;25.50;19.75;;;;;11.97;87.93;102613.22;5066022;27;45472;-67
2024/01/25 07:20:11;;;;;;;;;26.25;21.75;;;;;11.91;88.28;102619.19;5079329;27;45301;-68
2024/01/25 07:22:36;;;;;;;;;24.25;23.00;;;;;11.84;89.13;102620.75;5063967;27;46140;-68
2024/01/25 07:25:02;;;;;;;;;33.25;23.75;;;;;11.95;88.69;102641.19;5079615;27;45458;-72
2024/01/25 07:27:28;;;;;;;;;24.75;19.75;;;;;11.86;88.66;102624.31;5080255;27;45476;-73
2024/01/25 07:29:53;;;;;;;;;19.75;18.25;;;;;11.86;89.27;102624.31;5079144;28;45428;-73
2024/01/25 07:32:20;;;;;;;;;34.25;20.25;;;;;11.85;89.19;102617.28;5093898;27;45699;-75
2024/01/25 07:34:46;;;;;;;;;19.25;18.25;;;;;11.91;89.38;102620.94;5074939;28;45449;-75
2024/01/25 07:37:12;;;;;;;;;28.00;21.25;;;;;11.77;89.11;102602.16;5067836;28;45310;-75
2024/01/25 07:39:38;;;;;;;;;25.00;20.25;;;;;11.98;89.44;102630.75;5095244;27;45427;-72
2024/01/25 07:42:04;;;;;;;;;26.50;22.25;;;;;12.00;89.78;102631.69;5078880;27;45553;-72
2024/01/25 07:44:29;;;;;;;;;19.50;16.25;;;;;11.88;89.47;102609.50;5078708;27;45495;-73
2024/01/25 07:46:55;;;;;;;;;21.50;19.75;;;;;11.85;89.28;102591.00;5069337;27;45214;-74
2024/01/25 07:49:21;;;;;;;;;21.25;16.75;;;;;11.91;89.92;102610.44;5063434;28;45368;-74
2024/01/25 07:51:46;;;;;;;;;21.25;18.00;;;;;12.01;89.29;102622.97;5070950;28;46039;-74
2024/01/25 07:54:13;;;;;;;;;23.50;20.25;;;;;11.97;89.67;102607.97;5079336;27;45484;-72
2024/01/25 07:56:39;;;;;;;;;24.25;18.50;;;;;12.01;89.58;102620.34;5078888;27;45843;-70
2024/01/25 07:59:04;;;;;;;;;28.50;20.00;;;;;12.00;89.69;102621.19;5078649;27;45445;-73
2024/01/25 08:01:30;;;;;;;;;23.00;18.50;;;;;12.03;89.42;102610.75;5078191;28;46317;-75
2024/01/25 08:03:56;;;;;;;;;33.75;22.25;;;;;12.05;89.02;102609.97;5093025;27;45520;-74
2024/01/25 08:06:22;;;;;;;;;24.00;15.50;;;;;12.13;88.75;102614.53;5074260;28;45586;-75
2024/01/25 08:08:48;;;;;;;;;25.50;19.50;;;;;12.22;88.73;102627.88;5075907;27;45559;-75
2024/01/25 08:11:18;;;;;;;;;23.50;18.50;;;;;12.09;88.62;102589.91;5068216;28;45649;-73
2024/01/25 08:13:44;;;;;;;;;26.50;20.25;;;;;12.27;89.10;102627.16;5076170;27;45424;-73
2024/01/25 08:16:10;;;;;;;;;22.75;20.75;;;;;12.25;88.35;102605.19;5065575;28;45473;-70
2024/01/25 08:18:36;;;;;;;;;27.00;22.25;;;;;12.38;87.87;102621.28;5065754;27;45545;-71
2024/01/25 08:21:02;;;;;;;;;28.75;18.25;;;;;12.40;87.83;102611.69;5077668;27;46787;-75
2024/01/25 08:23:28;;;;;;;;;21.50;19.00;;;;;12.49;87.71;102617.16;5078242;27;45467;-72
2024/01/25 08:25:54;;;;;;;;;27.50;15.75;;;;;12.45;87.13;102604.81;5077727;27;45443;-71
2024/01/25 08:28:19;;;;;;;;;29.00;19.75;;;;;12.58;86.77;102614.75;5077939;27;45513;-77
2024/01/25 08:30:45;;;;;;;;;28.75;26.50;;;;;12.45;86.88;102589.03;5078933;27;45400;-76
2024/01/25 08:33:11;;;;;;;;;5.00;3.25;;;;;12.45;86.62;102589.03;5079802;27;45461;-74
2024/01/25 08:35:36;;;;;;;;;27.50;25.25;;;;;12.43;87.67;102594.28;5078021;27;45378;-69
2024/01/25 08:38:02;;;;;;;;;25.50;18.50;;;;;12.62;87.06;102623.59;5077569;27;45523;-75
2024/01/25 08:40:28;;;;;;;;;29.25;21.75;;;;;12.42;86.92;102594.22;5077258;27;45829;-73
2024/01/25 08:42:53;;;;;;;;;21.75;21.75;;;;;12.75;86.68;102630.94;5064360;28;45460;-75
2024/01/25 08:45:19;;;;;;;;;23.50;20.00;;;;;12.71;86.73;102611.56;5075018;28;45342;-76
2024/01/25 08:47:46;;;;;;;;;20.25;15.00;;;;;12.78;86.99;102624.84;5083510;27;45478;-79
2024/01/25 08:50:13;;;;;;;;;27.00;21.75;;;;;12.81;86.39;102632.81;5070378;27;47596;-72
2024/01/25 08:52:40;;;;;;;;;23.00;17.00;;;;;12.72;86.49;102629.13;5055029;28;45492;-74
2024/01/25 08:55:06;;;;;;;;;25.00;24.75;;;;;12.75;86.81;102625.66;5072802;28;45291;-74
2024/01/25 08:57:32;;;;;;;;;23.50;17.50;;;;;12.73;86.41;102623.00;5077794;27;45649;-76
2024/01/25 08:59:58;;;;;;;;;20.00;16.50;;;;;12.82;85.93;102619.69;5065389;27;46134;-75
2024/01/25 09:02:27;;;;;;;;;17.50;14.25;;;;;12.94;86.01;102634.88;5078100;28;45419;-77
2024/01/25 09:04:53;;;;;;;;;16.25;14.50;;;;;12.99;85.69;102633.22;5096451;27;45430;-77
2024/01/25 09:07:22;;;;;;;;;19.00;12.50;;;;;12.93;85.64;102623.47;5076018;27;45404;-76
2024/01/25 09:09:48;;;;;;;;;22.00;15.25;;;;;13.04;85.01;102628.06;5077134;28;45472;-76
2024/01/25 09:12:16;;;;;;;;;15.00;13.75;;;;;13.02;84.86;102614.88;5078027;27;45484;-77
2024/01/25 09:14:42;;;;;;;;;17.00;13.00;;;;;13.11;83.92;102633.50;5080861;27;45429;-74
2024/01/25 09:17:09;;;;;;;;;14.67;11.33;;;;;13.05;84.34;102614.97;5093183;27;45667;-72
2024/01/25 09:19:35;;;;;;;;;16.33;11.33;;;;;13.15;84.45;102637.09;5077744;27;45480;-69
2024/01/25 09:22:04;;;;;;;;;16.67;10.67;;;;;13.09;84.42;102622.03;5077008;27;45645;-72
2024/01/25 09:24:30;;;;;;;;;13.75;12.50;;;;;13.00;83.97;102602.53;5077208;28;45325;-74
2024/01/25 09:26:56;;;;;;;;;10.00;8.67;;;;;13.16;84.26;102609.91;5077320;27;45437;-72
2024/01/25 09:29:22;;;;;;;;;17.00;10.33;;;;;13.09;83.03;102592.22;5075383;28;45299;-71
2024/01/25 09:31:47;;;;;;;;;13.67;12.33;;;;;13.28;83.31;102620.72;5077208;27;45242;-76
2024/01/25 09:34:13;;;;;;;;;12.67;10.33;;;;;13.31;83.32;102606.75;5077220;27;45558;-71
2024/01/25 09:36:38;;;;;;;;;21.00;15.00;;;;;13.46;82.44;102630.75;5078042;28;45578;-73
2024/01/25 09:39:04;;;;;;;;;19.00;12.00;;;;;13.44;82.48;102631.59;5099435;27;46540;-73
2024/01/25 09:41:30;;;;;;;;;17.33;13.00;;;;;13.49;82.40;102633.44;5109574;27;45425;-71
2024/01/25 09:43:56;;;;;;;;;16.33;11.67;;;;;13.40;82.43;102620.09;5075052;28;45459;-73
2024/01/25 09:46:22;;;;;;;;;15.33;13.33;;;;;13.44;82.03;102629.84;5076239;28;45497;-73
2024/01/25 09:48:49;;;;;;;;;15.67;15.67;;;;;13.33;82.86;102613.81;5062922;27;46055;-76
2024/01/25 09:51:15;;;;;;;;;16.00;14.75;;;;;13.39;82.85;102631.50;5077445;27;45355;-76
2024/01/25 09:53:43;;;;;;;;;17.33;12.00;;;;;13.44;82.61;102635.09;5077878;27;45439;-71
2024/01/25 09:56:13;;;;;;;;;17.00;12.67;;;;;13.28;82.67;102620.72;5078464;28;45400;-72
2024/01/25 09:58:46;;;;;;;;;14.67;13.67;;;;;13.33;82.35;102626.09;5076647;28;46310;-75
2024/01/25 10:01:14;;;;;;;;;15.67;12.00;;;;;13.25;82.61;102606.59;5076776;27;45838;-73
2024/01/25 10:03:47;;;;;;;;;19.33;13.00;;;;;13.40;82.57;102635.00;5099929;27;45523;-74
2024/01/25 10:06:13;;;;;;;;;18.67;16.33;;;;;13.40;82.98;102638.50;5082449;27;45697;-76
2024/01/25 10:08:39;;;;;;;;;19.00;16.25;;;;;13.29;83.68;102645.31;5078124;28;45667;-75
2024/01/25 10:11:05;;;;;;;;;19.00;15.75;;;;;13.19;83.84;102632.75;5080190;27;45475;-77
2024/01/25 10:13:31;;;;;;;;;26.25;19.50;;;;;13.22;84.83;102646.91;5077958;28;45447;-77
2024/01/25 10:15:58;;;;;;;;;25.50;19.75;;;;;13.22;85.11;102649.53;5079798;27;45542;-78
2024/01/25 10:18:27;;;;;;;;;21.25;18.50;;;;;13.22;85.20;102653.91;5078272;28;48096;-73
2024/01/25 10:20:55;;;;;;;;;21.25;19.25;;;;;13.16;85.15;102637.09;5079656;27;45571;-73
2024/01/25 10:23:22;;;;;;;;;21.25;20.75;;;;;13.24;85.09;102650.44;5079738;28;45396;-74
2024/01/25 10:25:47;;;;;;;;;30.00;23.75;;;;;13.20;85.39;102645.97;5079954;28;45426;-69
2024/01/25 10:28:13;;;;;;;;;25.25;20.50;;;;;13.24;85.48;102652.16;5078743;28;47516;-74
2024/01/25 10:30:38;;;;;;;;;27.25;20.75;;;;;13.28;85.17;102647.03;5078415;27;45255;-72
2024/01/25 10:33:04;;;;;;;;;26.50;22.50;;;;;13.28;85.28;102627.75;5077874;28;45615;-74
2024/01/25 10:35:32;;;;;;;;;23.00;21.00;;;;;13.42;84.87;102642.06;5078342;28;45508;-72
2024/01/25 10:37:58;;;;;;;;;23.75;18.75;;;;;13.43;84.82;102633.34;5075997;28;45492;-71
2024/01/25 10:40:24;;;;;;;;;30.50;20.75;;;;;13.38;85.04;102627.06;5078173;28;45444;-72
2024/01/25 10:42:50;;;;;;;;;19.00;17.75;;;;;13.49;84.71;102643.97;5079562;27;45535;-73
2024/01/25 10:45:16;;;;;;;;;26.75;20.00;;;;;13.52;84.02;102644.03;5079679;27;45519;-70
2024/01/25 10:47:44;;;;;;;;;24.75;17.00;;;;;13.60;83.80;102638.06;5072573;27;45506;-69
2024/01/25 10:50:13;;;;;;;;;25.25;16.00;;;;;13.51;83.91;102620.31;5072808;28;45442;-69
2024/01/25 10:52:40;;;;;;;;;21.00;17.00;;;;;13.65;83.51;102637.28;5079938;27;45478;-70
2024/01/25 10:55:07;;;;;;;;;26.67;18.33;;;;;13.64;83.53;102631.97;5080306;27;45436;-70
2024/01/25 10:57:43;;;;;;;;;14.00;14.00;;;;;13.80;83.00;102634.03;5094867;27;45668;-70
2024/01/25 11:00:14;;;;;;;;;24.75;19.75;;;;;13.87;82.85;102622.75;5080488;27;45588;-72
2024/01/25 11:02:40;;;;;;;;;18.75;15.75;;;;;13.94;82.02;102616.75;5096687;27;45306;-70
2024/01/25 11:05:10;;;;;;;;;21.00;18.50;;;;;14.01;82.27;102607.22;5080134;28;45401;-73
2024/01/25 11:07:44;;;;;;;;;17.33;15.00;;;;;14.20;80.95;102609.28;5078584;28;46557;-73
2024/01/25 11:10:21;;;;;;;;;18.67;11.67;;;;;14.37;80.21;102608.69;5079254;27;45369;-73
2024/01/25 11:13:14;;;;;;;;;14.67;10.00;;;;;14.40;79.38;102620.19;5078947;27;45533;-75
2024/01/25 11:15:39;;;;;;;;;17.67;12.00;;;;;14.21;78.86;102590.00;5078401;27;45479;-73